createdAt,value
2018-09-18T00:00:07.857Z,21.40
2018-09-18T00:03:07.287Z,21.40
2018-09-18T00:05:35.858Z,21.40
2018-09-18T00:08:04.474Z,21.40
2018-09-18T00:10:33.119Z,21.30
2018-09-18T00:13:01.747Z,21.30
2018-09-18T00:15:30.312Z,21.30
2018-09-18T00:17:58.894Z,21.30
2018-09-18T00:20:27.499Z,21.30
2018-09-18T00:22:56.108Z,21.30
2018-09-18T00:25:24.706Z,21.30
2018-09-18T00:27:53.237Z,21.30
2018-09-18T00:30:21.828Z,21.30
2018-09-18T00:32:50.382Z,21.30
2018-09-18T00:35:18.990Z,21.30
2018-09-18T00:37:47.571Z,21.30
2018-09-18T00:40:16.178Z,21.30
2018-09-18T00:42:44.704Z,21.30
2018-09-18T00:45:13.297Z,21.30
2018-09-18T00:47:41.990Z,21.30
2018-09-18T00:50:10.623Z,21.30
2018-09-18T00:52:39.193Z,21.30
2018-09-18T00:55:07.800Z,21.30
2018-09-18T00:57:36.406Z,21.30
2018-09-18T01:00:05.264Z,21.30
2018-09-18T01:02:33.933Z,21.30
2018-09-18T01:05:02.519Z,21.30
2018-09-18T01:07:31.132Z,21.20
2018-09-18T01:09:59.690Z,21.30
2018-09-18T01:12:28.264Z,21.20
2018-09-18T01:14:56.956Z,21.20
2018-09-18T01:17:25.550Z,21.20
2018-09-18T01:19:54.118Z,21.30
2018-09-18T01:22:22.755Z,21.30
2018-09-18T01:24:51.355Z,21.20
2018-09-18T01:27:19.955Z,21.20
2018-09-18T01:29:48.551Z,21.20
2018-09-18T01:32:17.351Z,21.20
2018-09-18T01:34:45.969Z,21.20
2018-09-18T01:37:14.579Z,21.20
2018-09-18T01:39:43.155Z,21.20
2018-09-18T01:42:11.755Z,21.20
2018-09-18T01:44:40.314Z,21.20
2018-09-18T01:47:08.865Z,21.20
2018-09-18T01:49:37.410Z,21.20
2018-09-18T01:52:05.971Z,21.20
2018-09-18T01:54:34.560Z,21.20
2018-09-18T01:57:03.166Z,21.20
2018-09-18T01:59:31.795Z,21.20
2018-09-18T02:02:00.353Z,21.20
2018-09-18T02:04:29.363Z,21.30
2018-09-18T02:06:57.936Z,21.30
2018-09-18T02:09:26.487Z,21.30
2018-09-18T02:11:55.040Z,21.30
2018-09-18T02:14:23.627Z,21.30
2018-09-18T02:16:52.178Z,21.20
2018-09-18T02:19:20.830Z,21.20
2018-09-18T02:21:49.398Z,21.20
2018-09-18T02:24:18.055Z,21.20
2018-09-18T02:26:46.627Z,21.20
2018-09-18T02:29:15.212Z,21.20
2018-09-18T02:31:43.856Z,21.20
2018-09-18T02:34:12.459Z,21.20
2018-09-18T02:36:59.146Z,21.20
2018-09-18T02:39:27.741Z,21.20
2018-09-18T02:41:56.332Z,21.20
2018-09-18T02:44:24.915Z,21.20
2018-09-18T02:46:53.498Z,21.20
2018-09-18T02:49:22.072Z,21.20
2018-09-18T02:51:50.987Z,21.20
2018-09-18T02:54:19.529Z,21.20
2018-09-18T02:56:48.736Z,21.20
2018-09-18T02:59:17.280Z,21.20
2018-09-18T03:01:45.823Z,21.20
2018-09-18T03:04:14.504Z,21.20
2018-09-18T03:06:43.075Z,21.20
2018-09-18T03:09:12.147Z,21.20
2018-09-18T03:11:40.782Z,21.20
2018-09-18T03:14:09.824Z,21.20
2018-09-18T03:16:38.392Z,21.20
2018-09-18T03:19:06.993Z,21.20
2018-09-18T03:21:35.674Z,21.20
2018-09-18T03:24:04.219Z,21.20
2018-09-18T03:26:32.791Z,21.20
2018-09-18T03:29:01.451Z,21.20
2018-09-18T03:31:29.994Z,21.20
2018-09-18T03:33:58.647Z,21.20
2018-09-18T03:36:27.269Z,21.20
2018-09-18T03:38:55.868Z,21.20
2018-09-18T03:41:24.427Z,21.20
2018-09-18T03:43:59.435Z,21.20
2018-09-18T03:46:28.055Z,21.20
2018-09-18T03:48:56.745Z,21.20
2018-09-18T03:51:25.383Z,21.20
2018-09-18T03:53:54.120Z,21.20
2018-09-18T03:56:22.766Z,21.20
2018-09-18T03:58:51.394Z,21.20
2018-09-18T04:01:19.944Z,21.20
2018-09-18T04:03:48.538Z,21.20
2018-09-18T04:06:17.085Z,21.20
2018-09-18T04:08:45.655Z,21.20
2018-09-18T04:11:14.252Z,21.20
2018-09-18T04:13:42.826Z,21.10
2018-09-18T04:16:11.363Z,21.20
2018-09-18T04:18:39.944Z,21.10
2018-09-18T04:21:08.880Z,21.10
2018-09-18T04:23:37.488Z,21.20
2018-09-18T04:26:06.139Z,21.20
2018-09-18T04:28:34.668Z,21.20
2018-09-18T04:31:03.402Z,21.20
2018-09-18T04:33:31.970Z,21.20
2018-09-18T04:36:00.612Z,21.20
2018-09-18T04:38:29.136Z,21.20
2018-09-18T04:40:57.723Z,21.20
2018-09-18T04:43:26.303Z,21.10
2018-09-18T04:45:54.940Z,21.10
2018-09-18T04:48:23.551Z,21.10
2018-09-18T04:50:52.276Z,21.20
2018-09-18T04:53:20.896Z,21.10
2018-09-18T04:55:49.470Z,21.20
2018-09-18T04:58:18.060Z,21.10
2018-09-18T05:00:46.595Z,21.10
2018-09-18T05:03:15.260Z,21.10
2018-09-18T05:05:43.847Z,21.10
2018-09-18T05:08:12.455Z,21.10
2018-09-18T05:10:41.035Z,21.10
2018-09-18T05:13:09.612Z,21.10
2018-09-18T05:15:38.190Z,21.10
2018-09-18T05:18:06.766Z,21.10
2018-09-18T05:20:35.337Z,21.10
2018-09-18T05:23:03.933Z,21.10
2018-09-18T05:25:32.556Z,21.10
2018-09-18T05:28:01.098Z,21.10
2018-09-18T05:30:29.914Z,21.20
2018-09-18T05:32:58.509Z,21.20
2018-09-18T05:35:27.151Z,21.20
2018-09-18T05:37:55.779Z,21.20
2018-09-18T05:40:24.354Z,21.20
2018-09-18T05:42:52.990Z,21.20
2018-09-18T05:45:21.761Z,21.20
2018-09-18T05:47:50.366Z,21.20
2018-09-18T05:50:19.287Z,21.20
2018-09-18T05:52:48.040Z,21.20
2018-09-18T05:55:16.664Z,21.20
2018-09-18T05:57:45.471Z,21.20
2018-09-18T06:00:14.069Z,21.20
2018-09-18T06:02:42.747Z,21.20
2018-09-18T06:05:11.302Z,21.10
2018-09-18T06:07:40.328Z,21.10
2018-09-18T06:10:08.902Z,21.20
2018-09-18T06:12:37.505Z,21.20
2018-09-18T06:15:06.129Z,21.10
2018-09-18T06:17:34.701Z,21.10
2018-09-18T06:20:04.128Z,21.10
2018-09-18T06:22:33.361Z,21.10
2018-09-18T06:25:02.420Z,21.10
2018-09-18T06:27:30.972Z,21.10
2018-09-18T06:29:59.663Z,21.10
2018-09-18T06:32:28.210Z,21.10
2018-09-18T06:34:56.954Z,21.10
2018-09-18T06:37:25.545Z,21.10
2018-09-18T06:39:54.099Z,21.10
2018-09-18T06:42:22.766Z,21.10
2018-09-18T06:44:51.326Z,21.10
2018-09-18T06:47:19.885Z,21.10
2018-09-18T06:49:48.470Z,21.10
2018-09-18T06:52:17.056Z,21.10
2018-09-18T06:54:45.599Z,21.10
2018-09-18T06:57:14.182Z,21.10
2018-09-18T06:59:42.736Z,21.10
2018-09-18T07:02:11.299Z,21.10
2018-09-18T07:04:39.874Z,21.10
2018-09-18T07:07:08.467Z,21.10
2018-09-18T07:09:37.118Z,21.10
2018-09-18T07:12:05.691Z,21.10
2018-09-18T07:14:34.283Z,21.10
2018-09-18T07:17:02.883Z,21.10
2018-09-18T07:19:31.537Z,21.10
2018-09-18T07:22:00.160Z,21.10
2018-09-18T07:24:28.809Z,21.10
2018-09-18T07:26:57.526Z,21.10
2018-09-18T07:29:26.129Z,21.10
2018-09-18T07:31:54.694Z,21.10
2018-09-18T07:34:23.271Z,21.10
2018-09-18T07:36:51.835Z,21.10
2018-09-18T07:39:20.406Z,21.10
2018-09-18T07:41:48.947Z,21.10
2018-09-18T07:44:17.482Z,21.10
2018-09-18T07:46:46.108Z,21.10
2018-09-18T07:49:14.752Z,21.10
2018-09-18T07:51:43.310Z,21.10
2018-09-18T07:54:11.884Z,21.10
2018-09-18T07:56:40.462Z,21.20
2018-09-18T07:59:09.111Z,21.10
2018-09-18T08:01:37.720Z,21.10
2018-09-18T08:04:06.272Z,21.20
2018-09-18T08:06:34.880Z,21.20
2018-09-18T08:09:03.877Z,21.20
2018-09-18T08:11:32.415Z,21.20
2018-09-18T08:14:01.078Z,21.20
2018-09-18T08:16:29.974Z,21.20
2018-09-18T08:18:58.981Z,21.20
2018-09-18T08:21:27.407Z,21.20
2018-09-18T08:23:56.011Z,21.20
2018-09-18T08:26:24.571Z,21.20
2018-09-18T08:28:53.148Z,21.20
2018-09-18T08:31:21.686Z,21.20
2018-09-18T08:33:50.269Z,21.20
2018-09-18T08:36:18.836Z,21.30
2018-09-18T08:38:47.420Z,21.30
2018-09-18T08:41:16.015Z,21.30
2018-09-18T08:43:44.619Z,21.40
2018-09-18T08:46:13.263Z,21.40
2018-09-18T08:48:47.046Z,21.40
2018-09-18T08:51:15.576Z,21.40
2018-09-18T08:53:44.208Z,21.50
2018-09-18T08:56:12.791Z,21.50
2018-09-18T08:58:41.369Z,21.50
2018-09-18T09:01:10.302Z,21.50
2018-09-18T09:03:38.869Z,21.60
2018-09-18T09:06:07.415Z,21.70
2018-09-18T09:08:36.013Z,21.70
2018-09-18T09:11:04.578Z,21.70
2018-09-18T09:13:33.290Z,21.70
2018-09-18T09:16:01.821Z,21.60
2018-09-18T09:18:30.430Z,21.70
2018-09-18T09:20:59.177Z,21.70
2018-09-18T09:23:58.393Z,21.70
2018-09-18T09:26:27.051Z,21.70
2018-09-18T09:28:55.604Z,21.70
2018-09-18T09:31:24.165Z,21.70
2018-09-18T09:33:52.731Z,21.90
2018-09-18T09:36:21.374Z,21.90
2018-09-18T09:38:49.962Z,21.90
2018-09-18T09:41:18.507Z,21.90
2018-09-18T09:43:47.092Z,21.90
2018-09-18T09:46:15.693Z,21.90
2018-09-18T09:48:58.886Z,21.90
2018-09-18T09:51:27.487Z,21.90
2018-09-18T09:53:56.163Z,22.00
2018-09-18T09:56:24.708Z,21.90
2018-09-18T09:58:53.231Z,22.00
2018-09-18T10:01:27.122Z,22.00
2018-09-18T10:03:56.136Z,21.90
2018-09-18T10:06:24.815Z,21.90
2018-09-18T10:08:53.391Z,22.00
2018-09-18T10:11:21.943Z,22.00
2018-09-18T10:13:50.557Z,22.00
2018-09-18T10:16:19.125Z,22.00
2018-09-18T10:18:47.727Z,22.00
2018-09-18T10:21:16.372Z,22.10
2018-09-18T10:23:44.976Z,22.20
2018-09-18T10:26:13.809Z,22.20
2018-09-18T10:28:42.256Z,22.30
2018-09-18T10:31:10.837Z,22.20
2018-09-18T10:36:07.601Z,22.20
2018-09-18T10:38:36.161Z,22.20
2018-09-18T10:41:04.849Z,22.20
2018-09-18T10:43:33.346Z,22.20
2018-09-18T10:46:01.898Z,22.20
2018-09-18T10:48:30.472Z,22.20
2018-09-18T10:50:59.076Z,22.20
2018-09-18T10:53:27.638Z,22.10
2018-09-18T10:55:56.200Z,22.10
2018-09-18T10:58:24.748Z,22.10
2018-09-18T11:00:53.356Z,22.00
2018-09-18T11:03:21.935Z,22.00
2018-09-18T11:05:50.523Z,22.00
2018-09-18T11:08:19.126Z,22.10
2018-09-18T11:10:47.763Z,22.30
2018-09-18T11:13:16.333Z,22.30
2018-09-18T11:15:44.941Z,22.20
2018-09-18T11:18:13.591Z,22.20
2018-09-18T11:20:42.301Z,22.10
2018-09-18T11:23:10.840Z,22.20
2018-09-18T11:25:40.342Z,22.30
2018-09-18T11:28:09.064Z,22.40
2018-09-18T11:30:37.658Z,22.50
2018-09-18T11:33:06.266Z,22.60
2018-09-18T11:35:41.763Z,22.50
2018-09-18T11:38:10.435Z,22.50
2018-09-18T11:43:07.226Z,22.80
2018-09-18T11:45:36.008Z,22.80
2018-09-18T11:48:04.620Z,22.80
2018-09-18T11:50:33.187Z,22.80
2018-09-18T11:53:01.887Z,22.70
2018-09-18T11:55:30.444Z,22.50
2018-09-18T11:57:58.999Z,22.50
2018-09-18T12:00:27.743Z,22.60
2018-09-18T12:02:56.358Z,22.80
2018-09-18T12:05:25.019Z,22.70
2018-09-18T12:07:53.810Z,22.60
2018-09-18T12:10:22.379Z,22.60
2018-09-18T12:12:51.032Z,22.60
2018-09-18T12:15:19.610Z,22.50
2018-09-18T12:17:48.211Z,22.60
2018-09-18T12:20:16.849Z,22.70
2018-09-18T12:22:45.488Z,22.80
2018-09-18T12:25:14.006Z,23.00
2018-09-18T12:27:42.626Z,22.80
2018-09-18T12:30:11.182Z,22.70
2018-09-18T12:32:39.756Z,22.70
2018-09-18T12:35:08.363Z,22.70
2018-09-18T12:37:37.036Z,22.80
2018-09-18T12:40:05.771Z,23.00
2018-09-18T12:42:34.569Z,23.00
2018-09-18T12:45:03.205Z,23.00
2018-09-18T12:47:32.153Z,23.00
2018-09-18T12:50:01.488Z,22.90
2018-09-18T12:52:29.938Z,23.00
2018-09-18T12:54:58.487Z,23.00
2018-09-18T12:57:27.200Z,23.10
2018-09-18T12:59:55.743Z,23.20
2018-09-18T13:02:24.325Z,23.20
2018-09-18T13:04:52.844Z,23.20
2018-09-18T13:07:21.576Z,23.10
2018-09-18T13:09:50.216Z,23.10
2018-09-18T13:12:18.873Z,23.10
2018-09-18T13:14:47.445Z,23.30
2018-09-18T13:17:16.058Z,23.30
2018-09-18T13:19:44.593Z,23.30
2018-09-18T13:22:13.136Z,23.30
2018-09-18T13:24:41.753Z,23.30
2018-09-18T13:27:10.331Z,23.20
2018-09-18T13:29:38.864Z,23.10
2018-09-18T13:32:07.543Z,23.10
2018-09-18T13:34:36.123Z,23.10
2018-09-18T13:37:04.807Z,23.20
2018-09-18T13:39:33.438Z,23.30
2018-09-18T13:42:02.008Z,23.20
2018-09-18T13:44:30.579Z,23.30
2018-09-18T13:46:59.167Z,23.30
2018-09-18T13:49:27.767Z,23.40
2018-09-18T13:51:56.437Z,23.40
2018-09-18T13:54:24.958Z,23.30
2018-09-18T13:56:53.547Z,23.40
2018-09-18T13:59:22.090Z,23.50
2018-09-18T14:01:50.714Z,23.60
2018-09-18T14:04:19.208Z,23.70
2018-09-18T14:06:48.324Z,23.80
2018-09-18T14:09:16.880Z,23.80
2018-09-18T14:11:45.456Z,23.90
2018-09-18T14:14:14.043Z,24.00
2018-09-18T14:16:42.623Z,24.10
2018-09-18T14:19:11.251Z,24.00
2018-09-18T14:21:39.818Z,24.00
2018-09-18T14:24:08.409Z,24.10
2018-09-18T14:26:37.209Z,24.10
2018-09-18T14:29:05.739Z,24.10
2018-09-18T14:31:34.284Z,24.00
2018-09-18T14:34:02.895Z,23.90
2018-09-18T14:36:31.433Z,24.00
2018-09-18T14:39:00.028Z,24.20
2018-09-18T14:41:28.650Z,24.30
2018-09-18T14:43:57.532Z,24.30
2018-09-18T14:46:26.091Z,24.30
2018-09-18T14:48:54.706Z,24.30
2018-09-18T14:51:23.421Z,24.20
2018-09-18T14:53:51.885Z,24.20
2018-09-18T14:56:20.441Z,24.30
2018-09-18T14:58:49.028Z,24.30
2018-09-18T15:01:17.611Z,24.20
2018-09-18T15:03:46.635Z,24.20
2018-09-18T15:06:15.863Z,24.10
2018-09-18T15:08:44.487Z,24.00
2018-09-18T15:11:13.067Z,24.00
2018-09-18T15:13:41.658Z,23.90
2018-09-18T15:16:10.362Z,23.90
2018-09-18T15:18:38.924Z,23.90
2018-09-18T15:21:07.490Z,23.90
2018-09-18T15:23:36.065Z,23.90
2018-09-18T15:26:04.659Z,23.90
2018-09-18T15:28:33.844Z,23.90
2018-09-18T15:31:02.633Z,23.90
2018-09-18T15:33:31.271Z,23.80
2018-09-18T15:35:59.928Z,23.80
2018-09-18T15:38:28.618Z,23.80
2018-09-18T15:43:25.416Z,23.90
2018-09-18T15:45:54.096Z,23.80
2018-09-18T15:48:22.938Z,23.80
2018-09-18T15:50:51.517Z,23.80
2018-09-18T15:53:20.080Z,23.70
2018-09-18T15:55:49.313Z,23.50
2018-09-18T16:00:46.155Z,23.50
2018-09-18T16:03:14.702Z,23.50
2018-09-18T16:05:44.354Z,23.50
2018-09-18T16:08:12.877Z,23.40
2018-09-18T16:10:41.440Z,23.40
2018-09-18T16:13:10.057Z,23.40
2018-09-18T16:15:38.860Z,23.40
2018-09-18T16:18:07.448Z,23.40
2018-09-18T16:20:36.263Z,23.40
2018-09-18T16:23:05.115Z,23.40
2018-09-18T16:25:33.775Z,23.40
2018-09-18T16:28:03.159Z,23.40
2018-09-18T16:30:31.728Z,23.40
2018-09-18T16:33:00.343Z,23.30
2018-09-18T16:35:28.961Z,23.30
2018-09-18T16:37:57.526Z,23.30
2018-09-18T16:40:26.216Z,23.30
2018-09-18T16:45:22.941Z,23.30
2018-09-18T16:47:51.566Z,23.30
2018-09-18T16:50:21.213Z,23.30
2018-09-18T16:52:49.800Z,23.20
2018-09-18T16:55:18.383Z,23.20
2018-09-18T16:57:47.059Z,23.20
2018-09-18T17:00:15.932Z,23.20
2018-09-18T17:02:45.632Z,23.10
2018-09-18T17:05:15.948Z,23.10
2018-09-18T17:07:44.920Z,23.10
2018-09-18T17:10:13.703Z,23.10
2018-09-18T17:12:42.405Z,23.10
2018-09-18T17:15:11.331Z,23.10
2018-09-18T17:17:40.118Z,23.10
2018-09-18T17:20:09.683Z,23.10
2018-09-18T17:22:38.901Z,23.00
2018-09-18T17:25:07.810Z,23.00
2018-09-18T17:27:36.570Z,23.00
2018-09-18T17:30:05.456Z,23.20
2018-09-18T17:32:34.059Z,23.30
2018-09-18T17:35:02.786Z,23.30
2018-09-18T17:37:31.396Z,23.30
2018-09-18T17:40:00.093Z,23.30
2018-09-18T17:42:28.638Z,23.30
2018-09-18T17:44:57.251Z,23.30
2018-09-18T17:47:25.899Z,23.30
2018-09-18T17:49:55.101Z,23.30
2018-09-18T17:52:23.830Z,23.30
2018-09-18T17:54:52.382Z,23.30
2018-09-18T17:57:21.515Z,23.30
2018-09-18T17:59:50.107Z,23.30
2018-09-18T18:02:18.672Z,23.30
2018-09-18T18:04:47.366Z,23.20
2018-09-18T18:07:16.155Z,23.20
2018-09-18T18:09:44.736Z,23.20
2018-09-18T18:12:13.343Z,23.20
2018-09-18T18:14:41.943Z,23.20
2018-09-18T18:17:10.516Z,23.20
2018-09-18T18:19:39.121Z,23.20
2018-09-18T18:22:07.737Z,23.10
2018-09-18T18:24:36.332Z,23.10
2018-09-18T18:27:04.932Z,23.10
2018-09-18T18:29:34.199Z,23.00
2018-09-18T18:32:02.774Z,23.00
2018-09-18T18:34:31.313Z,23.00
2018-09-18T18:36:59.885Z,23.00
2018-09-18T18:39:28.655Z,22.90
2018-09-18T18:41:57.348Z,22.90
2018-09-18T18:44:25.920Z,22.90
2018-09-18T18:46:54.583Z,22.90
2018-09-18T18:49:23.195Z,22.90
2018-09-18T18:51:51.920Z,22.90
2018-09-18T18:54:20.467Z,22.90
2018-09-18T18:56:49.947Z,22.90
2018-09-18T18:59:18.516Z,22.90
2018-09-18T19:01:47.126Z,22.90
2018-09-18T19:04:15.675Z,22.90
2018-09-18T19:06:44.275Z,22.80
2018-09-18T19:09:12.939Z,22.80
2018-09-18T19:11:41.887Z,22.80
2018-09-18T19:14:10.475Z,22.80
2018-09-18T19:16:39.115Z,22.80
2018-09-18T19:19:08.347Z,22.80
2018-09-18T19:21:37.087Z,22.80
2018-09-18T19:24:05.652Z,22.80
2018-09-18T19:26:34.208Z,22.80
2018-09-18T19:29:02.810Z,22.80
2018-09-18T19:31:31.380Z,22.80
2018-09-18T19:34:00.007Z,22.80
2018-09-18T19:36:28.704Z,22.80
2018-09-18T19:38:57.365Z,22.80
2018-09-18T19:41:26.533Z,22.80
2018-09-18T19:43:55.082Z,22.70
2018-09-18T19:46:23.646Z,22.70
2018-09-18T19:48:52.197Z,22.70
2018-09-18T19:51:20.866Z,22.70
2018-09-18T19:53:49.417Z,22.70
2018-09-18T19:56:17.964Z,22.70
2018-09-18T19:58:46.620Z,22.70
2018-09-18T20:01:15.207Z,22.70
2018-09-18T20:03:43.827Z,22.70
2018-09-18T20:06:12.389Z,22.70
2018-09-18T20:08:41.057Z,22.70
2018-09-18T20:11:09.646Z,22.70
2018-09-18T20:13:38.348Z,22.70
2018-09-18T20:16:07.231Z,22.70
2018-09-18T20:18:35.842Z,22.70
2018-09-18T20:21:04.601Z,22.70
2018-09-18T20:23:33.180Z,22.70
2018-09-18T20:26:01.844Z,22.70
2018-09-18T20:28:30.386Z,22.70
2018-09-18T20:30:59.031Z,22.70
2018-09-18T20:33:27.740Z,22.70
2018-09-18T20:35:56.336Z,22.70
2018-09-18T20:38:24.929Z,22.70
2018-09-18T20:40:53.677Z,22.70
2018-09-18T20:43:22.270Z,22.60
2018-09-18T20:45:50.969Z,22.60
2018-09-18T20:48:19.635Z,22.70
2018-09-18T20:50:49.401Z,22.70
2018-09-18T20:53:17.935Z,22.60
2018-09-18T20:55:46.626Z,22.60
2018-09-18T20:58:15.191Z,22.60
2018-09-18T21:00:43.852Z,22.60
2018-09-18T21:03:12.395Z,22.60
2018-09-18T21:05:41.013Z,22.60
2018-09-18T21:08:09.630Z,22.60
2018-09-18T21:13:06.512Z,22.60
2018-09-18T21:15:35.205Z,22.60
2018-09-18T21:18:04.694Z,22.60
2018-09-18T21:20:33.962Z,22.60
2018-09-18T21:23:02.584Z,22.60
2018-09-18T21:25:38.136Z,22.60
2018-09-18T21:28:06.675Z,22.60
2018-09-18T21:30:35.221Z,22.60
2018-09-18T21:33:03.980Z,22.60
2018-09-18T21:35:32.607Z,22.60
2018-09-18T21:38:01.147Z,22.60
2018-09-18T21:40:29.744Z,22.60
2018-09-18T21:42:58.357Z,22.60
2018-09-18T21:45:27.039Z,22.60
2018-09-18T21:47:55.652Z,22.60
2018-09-18T21:50:24.212Z,22.70
2018-09-18T21:52:52.836Z,22.70
2018-09-18T21:55:21.422Z,22.70
2018-09-18T21:57:50.012Z,22.60
2018-09-18T22:00:18.636Z,22.60
2018-09-18T22:02:47.938Z,22.60
2018-09-18T22:05:16.866Z,22.60
2018-09-18T22:07:45.548Z,22.60
2018-09-18T22:10:14.159Z,22.60
2018-09-18T22:12:42.785Z,22.60
2018-09-18T22:15:11.351Z,22.60
2018-09-18T22:17:39.909Z,22.60
2018-09-18T22:20:08.811Z,22.60
2018-09-18T22:22:37.402Z,22.60
2018-09-18T22:25:06.273Z,22.60
2018-09-18T22:27:34.905Z,22.60
2018-09-18T22:30:03.691Z,22.60
2018-09-18T22:32:32.345Z,22.60
2018-09-18T22:35:01.058Z,22.50
2018-09-18T22:37:29.746Z,22.50
2018-09-18T22:39:58.394Z,22.50
2018-09-18T22:42:27.020Z,22.50
2018-09-18T22:44:55.623Z,22.50
2018-09-18T22:47:24.169Z,22.50
2018-09-18T22:49:52.772Z,22.50
2018-09-18T22:52:21.402Z,22.60
2018-09-18T22:54:49.998Z,22.70
2018-09-18T22:57:18.597Z,22.80
2018-09-18T22:59:47.151Z,22.90
2018-09-18T23:02:15.719Z,23.00
2018-09-18T23:04:44.307Z,23.00
2018-09-18T23:07:13.028Z,23.00
2018-09-18T23:09:41.590Z,23.00
2018-09-18T23:12:10.282Z,23.00
2018-09-18T23:14:38.850Z,23.00
2018-09-18T23:17:07.469Z,23.00
2018-09-18T23:19:36.106Z,22.90
2018-09-18T23:22:04.722Z,22.90
2018-09-18T23:24:33.719Z,22.90
2018-09-18T23:27:02.293Z,22.90
2018-09-18T23:29:30.884Z,22.80
2018-09-18T23:31:59.443Z,22.80
2018-09-18T23:34:28.064Z,22.70
2018-09-18T23:36:56.679Z,22.70
2018-09-18T23:39:25.239Z,22.70
2018-09-18T23:41:53.814Z,22.60
2018-09-18T23:44:22.398Z,22.60
2018-09-18T23:46:51.006Z,22.60
2018-09-18T23:49:19.588Z,22.60
2018-09-18T23:51:48.141Z,22.50
2018-09-18T23:54:16.727Z,22.50
2018-09-18T23:56:45.330Z,22.50
2018-09-18T23:59:13.921Z,22.50
